sensor_id;sensor_type;location;lat;lon;timestamp;P1;durP1;ratioP1;P2;durP2;ratioP2
27113;SDS011;14648;49.730;8.614;2022-11-15T00:01:53;4.93;;;2.83;;
27113;SDS011;14648;49.730;8.614;2022-11-15T00:04:19;3.53;;;2.63;;
27113;SDS011;14648;49.730;8.614;2022-11-15T00:06:45;3.83;;;3.20;;
27113;SDS011;14648;49.730;8.614;2022-11-15T00:09:10;3.57;;;2.87;;
27113;SDS011;14648;49.730;8.614;2022-11-15T00:11:36;4.87;;;2.73;;
27113;SDS011;14648;49.730;8.614;2022-11-15T00:14:02;6.80;;;3.73;;
27113;SDS011;14648;49.730;8.614;2022-11-15T00:16:28;3.77;;;2.90;;
27113;SDS011;14648;49.730;8.614;2022-11-15T00:18:53;10.07;;;3.67;;
27113;SDS011;14648;49.730;8.614;2022-11-15T00:21:19;7.47;;;3.47;;
27113;SDS011;14648;49.730;8.614;2022-11-15T00:23:45;3.10;;;2.90;;
27113;SDS011;14648;49.730;8.614;2022-11-15T00:26:11;3.53;;;3.33;;
27113;SDS011;14648;49.730;8.614;2022-11-15T00:28:39;5.10;;;2.47;;
27113;SDS011;14648;49.730;8.614;2022-11-15T00:31:08;5.00;;;3.00;;
27113;SDS011;14648;49.730;8.614;2022-11-15T00:33:37;3.80;;;3.40;;
27113;SDS011;14648;49.730;8.614;2022-11-15T00:36:04;6.13;;;2.87;;
27113;SDS011;14648;49.730;8.614;2022-11-15T00:38:34;3.33;;;2.60;;
27113;SDS011;14648;49.730;8.614;2022-11-15T00:41:02;9.80;;;2.90;;
27113;SDS011;14648;49.730;8.614;2022-11-15T00:43:30;4.70;;;2.60;;
27113;SDS011;14648;49.730;8.614;2022-11-15T00:45:56;4.20;;;2.80;;
27113;SDS011;14648;49.730;8.614;2022-11-15T00:48:21;3.93;;;3.30;;
27113;SDS011;14648;49.730;8.614;2022-11-15T00:50:47;5.50;;;2.63;;
27113;SDS011;14648;49.730;8.614;2022-11-15T00:53:14;4.20;;;3.40;;
27113;SDS011;14648;49.730;8.614;2022-11-15T00:55:40;5.37;;;3.27;;
27113;SDS011;14648;49.730;8.614;2022-11-15T00:58:06;4.63;;;3.40;;
27113;SDS011;14648;49.730;8.614;2022-11-15T01:00:32;4.13;;;2.87;;
27113;SDS011;14648;49.730;8.614;2022-11-15T01:02:58;4.33;;;3.07;;
27113;SDS011;14648;49.730;8.614;2022-11-15T01:05:25;5.77;;;3.73;;
27113;SDS011;14648;49.730;8.614;2022-11-15T01:07:54;4.37;;;3.97;;
27113;SDS011;14648;49.730;8.614;2022-11-15T01:10:22;3.83;;;3.53;;
27113;SDS011;14648;49.730;8.614;2022-11-15T01:12:49;8.27;;;3.80;;
27113;SDS011;14648;49.730;8.614;2022-11-15T01:15:14;4.60;;;3.03;;
27113;SDS011;14648;49.730;8.614;2022-11-15T01:17:40;3.40;;;3.10;;
27113;SDS011;14648;49.730;8.614;2022-11-15T01:20:06;3.07;;;2.77;;
27113;SDS011;14648;49.730;8.614;2022-11-15T01:22:32;5.47;;;3.00;;
27113;SDS011;14648;49.730;8.614;2022-11-15T01:24:58;4.30;;;2.97;;
27113;SDS011;14648;49.730;8.614;2022-11-15T01:27:24;7.30;;;3.73;;
27113;SDS011;14648;49.730;8.614;2022-11-15T01:29:50;3.67;;;3.37;;
27113;SDS011;14648;49.730;8.614;2022-11-15T01:32:15;4.53;;;3.00;;
27113;SDS011;14648;49.730;8.614;2022-11-15T01:34:41;7.53;;;3.40;;
27113;SDS011;14648;49.730;8.614;2022-11-15T01:37:07;4.87;;;3.10;;
27113;SDS011;14648;49.730;8.614;2022-11-15T01:39:33;3.23;;;2.93;;
27113;SDS011;14648;49.730;8.614;2022-11-15T01:41:59;4.73;;;3.37;;
27113;SDS011;14648;49.730;8.614;2022-11-15T01:46:59;3.70;;;2.80;;
27113;SDS011;14648;49.730;8.614;2022-11-15T01:49:35;3.30;;;2.80;;
27113;SDS011;14648;49.730;8.614;2022-11-15T01:52:03;3.67;;;3.17;;
27113;SDS011;14648;49.730;8.614;2022-11-15T01:54:33;5.63;;;3.13;;
27113;SDS011;14648;49.730;8.614;2022-11-15T01:56:59;5.80;;;2.77;;
27113;SDS011;14648;49.730;8.614;2022-11-15T01:59:35;2.73;;;2.50;;
27113;SDS011;14648;49.730;8.614;2022-11-15T02:02:03;5.97;;;2.93;;
27113;SDS011;14648;49.730;8.614;2022-11-15T02:04:34;4.43;;;3.10;;
27113;SDS011;14648;49.730;8.614;2022-11-15T02:07:05;2.80;;;2.50;;
27113;SDS011;14648;49.730;8.614;2022-11-15T02:09:35;6.80;;;3.00;;
27113;SDS011;14648;49.730;8.614;2022-11-15T02:12:01;5.17;;;2.87;;
27113;SDS011;14648;49.730;8.614;2022-11-15T02:14:27;3.53;;;2.73;;
27113;SDS011;14648;49.730;8.614;2022-11-15T02:17:03;4.30;;;3.40;;
27113;SDS011;14648;49.730;8.614;2022-11-15T02:25:42;5.50;;;2.70;;
27113;SDS011;14648;49.730;8.614;2022-11-15T02:28:48;6.17;;;2.90;;
27113;SDS011;14648;49.730;8.614;2022-11-15T02:31:45;5.33;;;2.70;;
27113;SDS011;14648;49.730;8.614;2022-11-15T02:37:51;6.73;;;2.90;;
27113;SDS011;14648;49.730;8.614;2022-11-15T02:40:33;3.20;;;2.57;;
27113;SDS011;14648;49.730;8.614;2022-11-15T02:43:29;4.43;;;2.70;;
27113;SDS011;14648;49.730;8.614;2022-11-15T02:46:44;3.90;;;2.87;;
27113;SDS011;14648;49.730;8.614;2022-11-15T02:49:34;3.13;;;2.80;;
27113;SDS011;14648;49.730;8.614;2022-11-15T02:52:00;2.63;;;2.40;;
27113;SDS011;14648;49.730;8.614;2022-11-15T02:54:28;4.40;;;3.07;;
27113;SDS011;14648;49.730;8.614;2022-11-15T02:57:04;3.83;;;2.73;;
27113;SDS011;14648;49.730;8.614;2022-11-15T03:00:01;6.17;;;2.73;;
27113;SDS011;14648;49.730;8.614;2022-11-15T03:11:13;3.23;;;2.93;;
27113;SDS011;14648;49.730;8.614;2022-11-15T03:16:31;3.03;;;2.77;;
27113;SDS011;14648;49.730;8.614;2022-11-15T03:19:14;4.57;;;2.73;;
27113;SDS011;14648;49.730;8.614;2022-11-15T03:21:57;3.97;;;2.53;;
27113;SDS011;14648;49.730;8.614;2022-11-15T03:24:25;5.03;;;3.50;;
27113;SDS011;14648;49.730;8.614;2022-11-15T03:26:55;7.13;;;2.67;;
27113;SDS011;14648;49.730;8.614;2022-11-15T03:29:25;3.07;;;2.87;;
27113;SDS011;14648;49.730;8.614;2022-11-15T03:31:58;5.07;;;2.60;;
27113;SDS011;14648;49.730;8.614;2022-11-15T03:34:41;2.60;;;2.40;;
27113;SDS011;14648;49.730;8.614;2022-11-15T03:37:26;2.77;;;2.57;;
27113;SDS011;14648;49.730;8.614;2022-11-15T03:40:29;3.83;;;2.67;;
27113;SDS011;14648;49.730;8.614;2022-11-15T03:43:06;3.60;;;3.30;;
27113;SDS011;14648;49.730;8.614;2022-11-15T03:46:05;4.27;;;2.83;;
27113;SDS011;14648;49.730;8.614;2022-11-15T03:48:40;6.90;;;2.90;;
27113;SDS011;14648;49.730;8.614;2022-11-15T03:51:12;3.63;;;3.30;;
27113;SDS011;14648;49.730;8.614;2022-11-15T03:53:38;3.27;;;2.70;;
27113;SDS011;14648;49.730;8.614;2022-11-15T03:56:06;4.23;;;2.40;;
27113;SDS011;14648;49.730;8.614;2022-11-15T03:58:31;5.33;;;3.17;;
27113;SDS011;14648;49.730;8.614;2022-11-15T04:00:57;2.73;;;2.30;;
27113;SDS011;14648;49.730;8.614;2022-11-15T04:03:24;3.00;;;2.70;;
27113;SDS011;14648;49.730;8.614;2022-11-15T04:05:50;5.20;;;3.03;;
27113;SDS011;14648;49.730;8.614;2022-11-15T04:08:16;3.13;;;2.50;;
27113;SDS011;14648;49.730;8.614;2022-11-15T04:10:42;4.37;;;3.00;;
27113;SDS011;14648;49.730;8.614;2022-11-15T04:13:08;4.70;;;3.63;;
27113;SDS011;14648;49.730;8.614;2022-11-15T04:15:34;7.10;;;3.27;;
27113;SDS011;14648;49.730;8.614;2022-11-15T04:18:00;3.87;;;3.00;;
27113;SDS011;14648;49.730;8.614;2022-11-15T04:20:27;5.13;;;4.30;;
27113;SDS011;14648;49.730;8.614;2022-11-15T04:26:07;4.10;;;2.90;;
27113;SDS011;14648;49.730;8.614;2022-11-15T04:28:37;8.57;;;3.70;;
27113;SDS011;14648;49.730;8.614;2022-11-15T04:31:25;3.40;;;3.03;;
27113;SDS011;14648;49.730;8.614;2022-11-15T04:33:52;4.87;;;3.40;;
27113;SDS011;14648;49.730;8.614;2022-11-15T04:36:18;4.93;;;2.77;;
27113;SDS011;14648;49.730;8.614;2022-11-15T04:39:03;2.97;;;2.67;;
27113;SDS011;14648;49.730;8.614;2022-11-15T04:41:29;2.20;;;2.10;;
27113;SDS011;14648;49.730;8.614;2022-11-15T04:43:55;3.20;;;2.77;;
27113;SDS011;14648;49.730;8.614;2022-11-15T04:46:21;3.33;;;2.50;;
27113;SDS011;14648;49.730;8.614;2022-11-15T04:48:48;7.03;;;3.27;;
27113;SDS011;14648;49.730;8.614;2022-11-15T04:51:15;5.73;;;2.80;;
27113;SDS011;14648;49.730;8.614;2022-11-15T04:53:41;3.20;;;2.33;;
27113;SDS011;14648;49.730;8.614;2022-11-15T04:56:07;7.27;;;3.80;;
27113;SDS011;14648;49.730;8.614;2022-11-15T04:58:33;3.33;;;3.07;;
27113;SDS011;14648;49.730;8.614;2022-11-15T05:01:05;4.57;;;2.83;;
27113;SDS011;14648;49.730;8.614;2022-11-15T05:03:32;2.83;;;2.47;;
27113;SDS011;14648;49.730;8.614;2022-11-15T05:06:16;4.90;;;2.40;;
27113;SDS011;14648;49.730;8.614;2022-11-15T05:08:42;2.63;;;2.43;;
27113;SDS011;14648;49.730;8.614;2022-11-15T05:11:08;3.53;;;2.10;;
27113;SDS011;14648;49.730;8.614;2022-11-15T05:13:33;3.33;;;3.03;;
27113;SDS011;14648;49.730;8.614;2022-11-15T05:15:59;4.30;;;2.80;;
27113;SDS011;14648;49.730;8.614;2022-11-15T05:18:25;3.10;;;2.90;;
27113;SDS011;14648;49.730;8.614;2022-11-15T05:20:50;6.33;;;3.57;;
27113;SDS011;14648;49.730;8.614;2022-11-15T05:23:16;2.87;;;2.57;;
27113;SDS011;14648;49.730;8.614;2022-11-15T05:25:41;3.33;;;3.07;;
27113;SDS011;14648;49.730;8.614;2022-11-15T05:28:07;4.93;;;3.20;;
27113;SDS011;14648;49.730;8.614;2022-11-15T05:30:33;3.53;;;2.77;;
27113;SDS011;14648;49.730;8.614;2022-11-15T05:33:00;3.90;;;2.50;;
27113;SDS011;14648;49.730;8.614;2022-11-15T05:35:29;4.70;;;2.83;;
27113;SDS011;14648;49.730;8.614;2022-11-15T05:37:59;2.63;;;2.43;;
27113;SDS011;14648;49.730;8.614;2022-11-15T05:40:25;4.83;;;4.27;;
27113;SDS011;14648;49.730;8.614;2022-11-15T05:42:52;4.03;;;3.67;;
27113;SDS011;14648;49.730;8.614;2022-11-15T05:45:18;7.40;;;3.10;;
27113;SDS011;14648;49.730;8.614;2022-11-15T05:47:44;5.97;;;3.47;;
27113;SDS011;14648;49.730;8.614;2022-11-15T05:50:12;4.37;;;3.63;;
27113;SDS011;14648;49.730;8.614;2022-11-15T05:52:41;5.67;;;4.30;;
27113;SDS011;14648;49.730;8.614;2022-11-15T05:55:07;4.10;;;3.40;;
27113;SDS011;14648;49.730;8.614;2022-11-15T05:57:34;6.57;;;3.67;;
27113;SDS011;14648;49.730;8.614;2022-11-15T05:59:59;4.40;;;3.90;;
27113;SDS011;14648;49.730;8.614;2022-11-15T06:02:26;4.70;;;3.90;;
27113;SDS011;14648;49.730;8.614;2022-11-15T06:04:52;8.40;;;4.47;;
27113;SDS011;14648;49.730;8.614;2022-11-15T06:07:17;9.50;;;4.40;;
27113;SDS011;14648;49.730;8.614;2022-11-15T06:09:43;7.53;;;4.60;;
27113;SDS011;14648;49.730;8.614;2022-11-15T06:12:09;13.70;;;5.23;;
27113;SDS011;14648;49.730;8.614;2022-11-15T06:14:34;7.23;;;4.40;;
27113;SDS011;14648;49.730;8.614;2022-11-15T06:17:00;6.03;;;4.37;;
27113;SDS011;14648;49.730;8.614;2022-11-15T06:19:25;11.40;;;4.60;;
27113;SDS011;14648;49.730;8.614;2022-11-15T06:21:51;4.30;;;3.90;;
27113;SDS011;14648;49.730;8.614;2022-11-15T06:24:16;7.40;;;5.20;;
27113;SDS011;14648;49.730;8.614;2022-11-15T06:26:42;8.20;;;5.43;;
27113;SDS011;14648;49.730;8.614;2022-11-15T06:29:08;7.87;;;5.00;;
27113;SDS011;14648;49.730;8.614;2022-11-15T06:31:34;5.80;;;4.70;;
27113;SDS011;14648;49.730;8.614;2022-11-15T06:33:59;6.63;;;4.10;;
27113;SDS011;14648;49.730;8.614;2022-11-15T06:36:25;7.40;;;4.77;;
27113;SDS011;14648;49.730;8.614;2022-11-15T06:38:51;4.93;;;4.20;;
27113;SDS011;14648;49.730;8.614;2022-11-15T06:41:17;5.57;;;4.23;;
27113;SDS011;14648;49.730;8.614;2022-11-15T06:43:42;7.30;;;4.30;;
27113;SDS011;14648;49.730;8.614;2022-11-15T06:46:08;9.77;;;4.80;;
27113;SDS011;14648;49.730;8.614;2022-11-15T06:48:34;10.63;;;3.97;;
27113;SDS011;14648;49.730;8.614;2022-11-15T06:51:01;8.00;;;4.40;;
27113;SDS011;14648;49.730;8.614;2022-11-15T06:53:29;5.87;;;5.00;;
27113;SDS011;14648;49.730;8.614;2022-11-15T06:55:59;14.43;;;4.73;;
27113;SDS011;14648;49.730;8.614;2022-11-15T06:58:27;6.43;;;4.80;;
27113;SDS011;14648;49.730;8.614;2022-11-15T07:00:53;6.83;;;5.23;;
27113;SDS011;14648;49.730;8.614;2022-11-15T07:03:22;8.33;;;5.20;;
27113;SDS011;14648;49.730;8.614;2022-11-15T07:05:52;7.30;;;5.23;;
27113;SDS011;14648;49.730;8.614;2022-11-15T07:08:19;9.10;;;5.27;;
27113;SDS011;14648;49.730;8.614;2022-11-15T07:10:46;7.27;;;5.40;;
27113;SDS011;14648;49.730;8.614;2022-11-15T07:13:12;5.40;;;4.03;;
27113;SDS011;14648;49.730;8.614;2022-11-15T07:15:37;10.10;;;5.20;;
27113;SDS011;14648;49.730;8.614;2022-11-15T07:18:03;10.60;;;5.27;;
27113;SDS011;14648;49.730;8.614;2022-11-15T07:20:29;9.43;;;6.97;;
27113;SDS011;14648;49.730;8.614;2022-11-15T07:23:01;10.80;;;5.83;;
27113;SDS011;14648;49.730;8.614;2022-11-15T07:25:29;12.87;;;6.07;;
27113;SDS011;14648;49.730;8.614;2022-11-15T07:27:56;8.93;;;5.03;;
27113;SDS011;14648;49.730;8.614;2022-11-15T07:30:23;6.53;;;4.80;;
27113;SDS011;14648;49.730;8.614;2022-11-15T07:32:56;6.97;;;4.60;;
27113;SDS011;14648;49.730;8.614;2022-11-15T07:35:24;6.37;;;4.30;;
27113;SDS011;14648;49.730;8.614;2022-11-15T07:37:55;7.37;;;4.50;;
27113;SDS011;14648;49.730;8.614;2022-11-15T07:40:26;9.13;;;4.20;;
27113;SDS011;14648;49.730;8.614;2022-11-15T07:43:03;7.07;;;4.10;;
27113;SDS011;14648;49.730;8.614;2022-11-15T07:45:33;7.77;;;4.33;;
27113;SDS011;14648;49.730;8.614;2022-11-15T07:47:59;8.83;;;3.60;;
27113;SDS011;14648;49.730;8.614;2022-11-15T07:50:26;8.33;;;4.17;;
27113;SDS011;14648;49.730;8.614;2022-11-15T07:52:55;8.43;;;4.13;;
27113;SDS011;14648;49.730;8.614;2022-11-15T07:55:24;5.80;;;3.83;;
27113;SDS011;14648;49.730;8.614;2022-11-15T07:57:52;5.47;;;4.53;;
27113;SDS011;14648;49.730;8.614;2022-11-15T08:00:18;10.67;;;6.00;;
27113;SDS011;14648;49.730;8.614;2022-11-15T08:02:44;8.80;;;5.03;;
27113;SDS011;14648;49.730;8.614;2022-11-15T08:05:10;8.50;;;4.67;;
27113;SDS011;14648;49.730;8.614;2022-11-15T08:07:36;8.13;;;4.90;;
27113;SDS011;14648;49.730;8.614;2022-11-15T08:10:03;10.13;;;4.50;;
27113;SDS011;14648;49.730;8.614;2022-11-15T08:12:31;7.93;;;5.03;;
27113;SDS011;14648;49.730;8.614;2022-11-15T08:14:57;7.50;;;4.80;;
27113;SDS011;14648;49.730;8.614;2022-11-15T08:17:23;6.57;;;4.53;;
27113;SDS011;14648;49.730;8.614;2022-11-15T08:19:49;8.97;;;4.53;;
27113;SDS011;14648;49.730;8.614;2022-11-15T08:22:15;6.87;;;4.23;;
27113;SDS011;14648;49.730;8.614;2022-11-15T08:24:41;5.20;;;4.23;;
27113;SDS011;14648;49.730;8.614;2022-11-15T08:27:07;6.37;;;5.30;;
27113;SDS011;14648;49.730;8.614;2022-11-15T08:29:43;6.20;;;5.60;;
27113;SDS011;14648;49.730;8.614;2022-11-15T08:32:09;14.83;;;6.53;;
27113;SDS011;14648;49.730;8.614;2022-11-15T08:34:36;10.10;;;6.53;;
27113;SDS011;14648;49.730;8.614;2022-11-15T08:37:03;11.50;;;6.47;;
27113;SDS011;14648;49.730;8.614;2022-11-15T08:39:29;6.17;;;5.03;;
27113;SDS011;14648;49.730;8.614;2022-11-15T08:41:55;6.03;;;4.63;;
27113;SDS011;14648;49.730;8.614;2022-11-15T08:44:21;9.30;;;4.30;;
27113;SDS011;14648;49.730;8.614;2022-11-15T08:46:47;8.00;;;5.17;;
27113;SDS011;14648;49.730;8.614;2022-11-15T08:49:12;6.20;;;5.50;;
27113;SDS011;14648;49.730;8.614;2022-11-15T08:51:38;6.90;;;5.17;;
27113;SDS011;14648;49.730;8.614;2022-11-15T08:54:04;9.73;;;4.90;;
27113;SDS011;14648;49.730;8.614;2022-11-15T08:56:30;10.40;;;4.77;;
27113;SDS011;14648;49.730;8.614;2022-11-15T08:58:55;6.13;;;4.63;;
27113;SDS011;14648;49.730;8.614;2022-11-15T09:01:22;6.20;;;5.00;;
27113;SDS011;14648;49.730;8.614;2022-11-15T09:03:48;8.33;;;5.17;;
27113;SDS011;14648;49.730;8.614;2022-11-15T09:06:14;9.70;;;5.30;;
27113;SDS011;14648;49.730;8.614;2022-11-15T09:08:40;5.20;;;4.70;;
27113;SDS011;14648;49.730;8.614;2022-11-15T09:11:07;7.93;;;5.73;;
27113;SDS011;14648;49.730;8.614;2022-11-15T09:13:35;7.80;;;5.73;;
27113;SDS011;14648;49.730;8.614;2022-11-15T09:16:02;8.53;;;5.87;;
27113;SDS011;14648;49.730;8.614;2022-11-15T09:18:29;10.37;;;6.43;;
27113;SDS011;14648;49.730;8.614;2022-11-15T09:20:58;11.33;;;6.30;;
27113;SDS011;14648;49.730;8.614;2022-11-15T09:23:26;11.13;;;5.80;;
27113;SDS011;14648;49.730;8.614;2022-11-15T09:25:52;10.70;;;6.53;;
27113;SDS011;14648;49.730;8.614;2022-11-15T09:28:26;9.07;;;6.30;;
27113;SDS011;14648;49.730;8.614;2022-11-15T09:30:55;10.27;;;6.20;;
27113;SDS011;14648;49.730;8.614;2022-11-15T09:33:25;9.33;;;5.93;;
27113;SDS011;14648;49.730;8.614;2022-11-15T09:35:52;7.40;;;5.80;;
27113;SDS011;14648;49.730;8.614;2022-11-15T09:38:18;12.00;;;6.13;;
27113;SDS011;14648;49.730;8.614;2022-11-15T09:40:44;6.80;;;6.00;;
27113;SDS011;14648;49.730;8.614;2022-11-15T09:46:46;10.50;;;6.20;;
27113;SDS011;14648;49.730;8.614;2022-11-15T09:49:26;6.33;;;5.60;;
27113;SDS011;14648;49.730;8.614;2022-11-15T09:51:55;7.07;;;5.47;;
27113;SDS011;14648;49.730;8.614;2022-11-15T09:54:23;10.47;;;5.40;;
27113;SDS011;14648;49.730;8.614;2022-11-15T09:57:05;9.40;;;6.27;;
27113;SDS011;14648;49.730;8.614;2022-11-15T10:05:44;7.07;;;6.17;;
27113;SDS011;14648;49.730;8.614;2022-11-15T10:08:28;9.03;;;5.70;;
27113;SDS011;14648;49.730;8.614;2022-11-15T10:11:09;12.13;;;6.17;;
27113;SDS011;14648;49.730;8.614;2022-11-15T10:13:44;8.93;;;5.97;;
27113;SDS011;14648;49.730;8.614;2022-11-15T10:16:18;7.87;;;6.00;;
27113;SDS011;14648;49.730;8.614;2022-11-15T10:19:12;10.80;;;5.57;;
27113;SDS011;14648;49.730;8.614;2022-11-15T10:25:17;9.23;;;6.40;;
27113;SDS011;14648;49.730;8.614;2022-11-15T10:27:54;8.30;;;5.53;;
27113;SDS011;14648;49.730;8.614;2022-11-15T10:30:23;9.07;;;6.17;;
27113;SDS011;14648;49.730;8.614;2022-11-15T10:33:09;5.77;;;4.60;;
27113;SDS011;14648;49.730;8.614;2022-11-15T10:41:13;7.43;;;4.80;;
27113;SDS011;14648;49.730;8.614;2022-11-15T10:43:46;9.27;;;4.77;;
27113;SDS011;14648;49.730;8.614;2022-11-15T10:46:36;9.13;;;4.40;;
27113;SDS011;14648;49.730;8.614;2022-11-15T10:49:12;7.00;;;3.93;;
27113;SDS011;14648;49.730;8.614;2022-11-15T10:51:49;5.17;;;3.60;;
27113;SDS011;14648;49.730;8.614;2022-11-15T10:57:07;3.90;;;3.40;;
27113;SDS011;14648;49.730;8.614;2022-11-15T10:59:42;5.67;;;3.37;;
27113;SDS011;14648;49.730;8.614;2022-11-15T11:04:58;9.80;;;3.63;;
27113;SDS011;14648;49.730;8.614;2022-11-15T11:07:26;3.60;;;3.33;;
27113;SDS011;14648;49.730;8.614;2022-11-15T11:12:44;4.53;;;2.97;;
27113;SDS011;14648;49.730;8.614;2022-11-15T11:15:11;3.63;;;2.40;;
27113;SDS011;14648;49.730;8.614;2022-11-15T11:17:52;5.20;;;3.00;;
27113;SDS011;14648;49.730;8.614;2022-11-15T11:26:22;2.80;;;2.60;;
27113;SDS011;14648;49.730;8.614;2022-11-15T11:29:21;4.53;;;2.53;;
27113;SDS011;14648;49.730;8.614;2022-11-15T11:33:00;2.67;;;1.93;;
27113;SDS011;14648;49.730;8.614;2022-11-15T11:35:30;2.50;;;2.30;;
27113;SDS011;14648;49.730;8.614;2022-11-15T11:38:19;2.67;;;2.47;;
27113;SDS011;14648;49.730;8.614;2022-11-15T11:41:04;6.03;;;2.10;;
27113;SDS011;14648;49.730;8.614;2022-11-15T11:49:08;3.80;;;2.90;;
27113;SDS011;14648;49.730;8.614;2022-11-15T11:51:43;3.10;;;2.90;;
27113;SDS011;14648;49.730;8.614;2022-11-15T12:00:14;2.50;;;2.30;;
27113;SDS011;14648;49.730;8.614;2022-11-15T12:03:03;3.27;;;2.43;;
27113;SDS011;14648;49.730;8.614;2022-11-15T12:05:53;2.63;;;1.77;;
27113;SDS011;14648;49.730;8.614;2022-11-15T12:08:40;2.20;;;2.10;;
27113;SDS011;14648;49.730;8.614;2022-11-15T12:11:50;3.83;;;1.70;;
27113;SDS011;14648;49.730;8.614;2022-11-15T12:14:25;4.90;;;2.10;;
27113;SDS011;14648;49.730;8.614;2022-11-15T12:17:12;2.10;;;1.70;;
27113;SDS011;14648;49.730;8.614;2022-11-15T12:19:40;1.60;;;1.50;;
27113;SDS011;14648;49.730;8.614;2022-11-15T12:24:48;3.53;;;1.87;;
27113;SDS011;14648;49.730;8.614;2022-11-15T12:30:03;1.73;;;1.60;;
27113;SDS011;14648;49.730;8.614;2022-11-15T12:32:37;5.23;;;2.20;;
27113;SDS011;14648;49.730;8.614;2022-11-15T12:35:20;2.43;;;1.90;;
27113;SDS011;14648;49.730;8.614;2022-11-15T12:38:03;2.50;;;2.10;;
27113;SDS011;14648;49.730;8.614;2022-11-15T12:42:59;5.23;;;2.27;;
27113;SDS011;14648;49.730;8.614;2022-11-15T12:45:40;3.53;;;1.73;;
27113;SDS011;14648;49.730;8.614;2022-11-15T12:58:41;5.03;;;2.00;;
27113;SDS011;14648;49.730;8.614;2022-11-15T13:01:55;2.30;;;2.10;;
27113;SDS011;14648;49.730;8.614;2022-11-15T13:04:21;3.23;;;2.93;;
27113;SDS011;14648;49.730;8.614;2022-11-15T13:06:52;5.17;;;2.47;;
27113;SDS011;14648;49.730;8.614;2022-11-15T13:12:03;5.40;;;2.43;;
27113;SDS011;14648;49.730;8.614;2022-11-15T13:15:01;4.93;;;2.57;;
27113;SDS011;14648;49.730;8.614;2022-11-15T13:21:02;2.63;;;2.00;;
27113;SDS011;14648;49.730;8.614;2022-11-15T13:23:53;6.20;;;3.03;;
27113;SDS011;14648;49.730;8.614;2022-11-15T13:26:19;3.97;;;2.40;;
27113;SDS011;14648;49.730;8.614;2022-11-15T13:28:47;8.70;;;2.90;;
27113;SDS011;14648;49.730;8.614;2022-11-15T13:31:36;5.53;;;2.90;;
27113;SDS011;14648;49.730;8.614;2022-11-15T13:34:30;3.10;;;2.37;;
27113;SDS011;14648;49.730;8.614;2022-11-15T13:48:58;5.00;;;3.20;;
27113;SDS011;14648;49.730;8.614;2022-11-15T13:51:47;6.67;;;2.57;;
27113;SDS011;14648;49.730;8.614;2022-11-15T13:54:43;3.10;;;2.80;;
27113;SDS011;14648;49.730;8.614;2022-11-15T13:57:44;5.50;;;3.57;;
27113;SDS011;14648;49.730;8.614;2022-11-15T14:00:40;2.77;;;2.57;;
27113;SDS011;14648;49.730;8.614;2022-11-15T14:03:29;3.83;;;2.23;;
27113;SDS011;14648;49.730;8.614;2022-11-15T14:06:32;3.23;;;2.93;;
27113;SDS011;14648;49.730;8.614;2022-11-15T14:09:32;2.47;;;2.27;;
27113;SDS011;14648;49.730;8.614;2022-11-15T14:12:30;2.70;;;2.50;;
27113;SDS011;14648;49.730;8.614;2022-11-15T14:21:36;3.67;;;2.00;;
27113;SDS011;14648;49.730;8.614;2022-11-15T14:24:22;2.03;;;1.70;;
27113;SDS011;14648;49.730;8.614;2022-11-15T14:27:17;2.50;;;2.03;;
27113;SDS011;14648;49.730;8.614;2022-11-15T14:30:14;5.93;;;2.27;;
27113;SDS011;14648;49.730;8.614;2022-11-15T14:33:14;3.63;;;2.90;;
27113;SDS011;14648;49.730;8.614;2022-11-15T14:36:20;9.60;;;3.13;;
27113;SDS011;14648;49.730;8.614;2022-11-15T14:39:07;5.83;;;3.83;;
27113;SDS011;14648;49.730;8.614;2022-11-15T14:41:53;3.80;;;3.00;;
27113;SDS011;14648;49.730;8.614;2022-11-15T14:44:39;3.27;;;2.97;;
27113;SDS011;14648;49.730;8.614;2022-11-15T14:47:25;5.20;;;3.77;;
27113;SDS011;14648;49.730;8.614;2022-11-15T14:50:15;3.27;;;2.90;;
27113;SDS011;14648;49.730;8.614;2022-11-15T14:53:04;5.83;;;3.83;;
27113;SDS011;14648;49.730;8.614;2022-11-15T14:55:51;9.20;;;3.57;;
27113;SDS011;14648;49.730;8.614;2022-11-15T14:58:37;4.27;;;3.73;;
27113;SDS011;14648;49.730;8.614;2022-11-15T15:01:24;4.60;;;2.17;;
27113;SDS011;14648;49.730;8.614;2022-11-15T15:04:11;1.43;;;1.30;;
27113;SDS011;14648;49.730;8.614;2022-11-15T15:06:57;2.03;;;1.20;;
27113;SDS011;14648;49.730;8.614;2022-11-15T15:09:43;2.00;;;1.40;;
27113;SDS011;14648;49.730;8.614;2022-11-15T15:12:30;1.63;;;1.30;;
27113;SDS011;14648;49.730;8.614;2022-11-15T15:15:26;2.60;;;1.30;;
27113;SDS011;14648;49.730;8.614;2022-11-15T15:18:19;2.90;;;1.70;;
27113;SDS011;14648;49.730;8.614;2022-11-15T15:21:18;1.47;;;1.00;;
27113;SDS011;14648;49.730;8.614;2022-11-15T15:24:13;1.40;;;0.83;;
27113;SDS011;14648;49.730;8.614;2022-11-15T15:27:00;0.90;;;0.90;;
27113;SDS011;14648;49.730;8.614;2022-11-15T15:29:46;1.10;;;1.00;;
27113;SDS011;14648;49.730;8.614;2022-11-15T15:32:33;1.57;;;1.30;;
27113;SDS011;14648;49.730;8.614;2022-11-15T15:35:20;3.70;;;1.20;;
27113;SDS011;14648;49.730;8.614;2022-11-15T15:38:08;1.03;;;1.00;;
27113;SDS011;14648;49.730;8.614;2022-11-15T15:40:58;1.20;;;0.97;;
27113;SDS011;14648;49.730;8.614;2022-11-15T15:43:44;0.80;;;0.80;;
27113;SDS011;14648;49.730;8.614;2022-11-15T15:46:30;2.40;;;1.30;;
27113;SDS011;14648;49.730;8.614;2022-11-15T15:49:16;2.70;;;0.90;;
27113;SDS011;14648;49.730;8.614;2022-11-15T15:52:02;0.90;;;0.90;;
27113;SDS011;14648;49.730;8.614;2022-11-15T15:54:48;1.80;;;1.20;;
27113;SDS011;14648;49.730;8.614;2022-11-15T15:57:34;1.13;;;1.03;;
27113;SDS011;14648;49.730;8.614;2022-11-15T16:00:21;1.83;;;0.90;;
27113;SDS011;14648;49.730;8.614;2022-11-15T16:03:09;1.20;;;0.73;;
27113;SDS011;14648;49.730;8.614;2022-11-15T16:05:55;1.00;;;0.90;;
27113;SDS011;14648;49.730;8.614;2022-11-15T16:08:41;1.20;;;0.90;;
27113;SDS011;14648;49.730;8.614;2022-11-15T16:11:27;0.97;;;0.97;;
27113;SDS011;14648;49.730;8.614;2022-11-15T16:14:13;2.40;;;0.90;;
27113;SDS011;14648;49.730;8.614;2022-11-15T16:16:59;1.10;;;0.70;;
27113;SDS011;14648;49.730;8.614;2022-11-15T16:19:45;1.07;;;0.83;;
27113;SDS011;14648;49.730;8.614;2022-11-15T16:22:31;0.93;;;0.93;;
27113;SDS011;14648;49.730;8.614;2022-11-15T16:25:17;1.40;;;0.80;;
27113;SDS011;14648;49.730;8.614;2022-11-15T16:28:03;2.33;;;0.90;;
27113;SDS011;14648;49.730;8.614;2022-11-15T16:30:49;2.30;;;1.10;;
27113;SDS011;14648;49.730;8.614;2022-11-15T16:34:05;2.13;;;1.10;;
27113;SDS011;14648;49.730;8.614;2022-11-15T16:36:51;0.80;;;0.80;;
27113;SDS011;14648;49.730;8.614;2022-11-15T16:39:38;0.90;;;0.90;;
27113;SDS011;14648;49.730;8.614;2022-11-15T16:42:24;1.27;;;1.17;;
27113;SDS011;14648;49.730;8.614;2022-11-15T16:45:11;1.63;;;0.90;;
27113;SDS011;14648;49.730;8.614;2022-11-15T16:47:58;1.43;;;1.10;;
27113;SDS011;14648;49.730;8.614;2022-11-15T16:50:44;1.20;;;0.70;;
27113;SDS011;14648;49.730;8.614;2022-11-15T16:53:30;2.30;;;1.00;;
27113;SDS011;14648;49.730;8.614;2022-11-15T16:56:17;1.87;;;1.00;;
27113;SDS011;14648;49.730;8.614;2022-11-15T17:05:01;1.40;;;1.30;;
27113;SDS011;14648;49.730;8.614;2022-11-15T17:07:47;6.40;;;1.73;;
27113;SDS011;14648;49.730;8.614;2022-11-15T17:10:33;9.90;;;4.27;;
27113;SDS011;14648;49.730;8.614;2022-11-15T17:13:17;7.87;;;3.30;;
27113;SDS011;14648;49.730;8.614;2022-11-15T17:15:43;4.20;;;1.97;;
27113;SDS011;14648;49.730;8.614;2022-11-15T17:18:11;2.30;;;1.73;;
27113;SDS011;14648;49.730;8.614;2022-11-15T17:20:40;3.37;;;1.80;;
27113;SDS011;14648;49.730;8.614;2022-11-15T17:23:11;3.90;;;2.20;;
27113;SDS011;14648;49.730;8.614;2022-11-15T17:25:38;2.40;;;1.60;;
27113;SDS011;14648;49.730;8.614;2022-11-15T17:28:05;1.83;;;1.73;;
27113;SDS011;14648;49.730;8.614;2022-11-15T17:30:31;1.50;;;1.40;;
27113;SDS011;14648;49.730;8.614;2022-11-15T17:32:58;2.93;;;1.20;;